sensor_id;sensor_type;location;lat;lon;timestamp;P1;durP1;ratioP1;P2;durP2;ratioP2
19492;SDS011;9887;54.366;10.958;2024-03-25T00:01:04;3.47;;;2.03;;
19492;SDS011;9887;54.366;10.958;2024-03-25T00:03:31;5.38;;;2.33;;
19492;SDS011;9887;54.366;10.958;2024-03-25T00:05:57;7.88;;;2.97;;
19492;SDS011;9887;54.366;10.958;2024-03-25T00:08:24;4.72;;;2.60;;
19492;SDS011;9887;54.366;10.958;2024-03-25T00:10:50;6.60;;;2.50;;
19492;SDS011;9887;54.366;10.958;2024-03-25T00:13:17;5.50;;;2.50;;
19492;SDS011;9887;54.366;10.958;2024-03-25T00:15:45;6.95;;;3.17;;
19492;SDS011;9887;54.366;10.958;2024-03-25T00:18:13;6.72;;;2.97;;
19492;SDS011;9887;54.366;10.958;2024-03-25T00:20:39;7.30;;;2.72;;
19492;SDS011;9887;54.366;10.958;2024-03-25T00:23:06;6.25;;;3.08;;
19492;SDS011;9887;54.366;10.958;2024-03-25T00:25:32;5.60;;;2.83;;
19492;SDS011;9887;54.366;10.958;2024-03-25T00:27:59;6.65;;;3.40;;
19492;SDS011;9887;54.366;10.958;2024-03-25T00:30:25;5.75;;;3.40;;
19492;SDS011;9887;54.366;10.958;2024-03-25T00:32:52;8.48;;;3.65;;
19492;SDS011;9887;54.366;10.958;2024-03-25T00:35:19;7.20;;;3.83;;
19492;SDS011;9887;54.366;10.958;2024-03-25T00:37:46;6.10;;;3.47;;
19492;SDS011;9887;54.366;10.958;2024-03-25T00:40:12;8.30;;;3.33;;
19492;SDS011;9887;54.366;10.958;2024-03-25T00:42:39;6.47;;;3.20;;
19492;SDS011;9887;54.366;10.958;2024-03-25T00:45:06;6.82;;;3.40;;
19492;SDS011;9887;54.366;10.958;2024-03-25T00:47:34;7.65;;;3.97;;
19492;SDS011;9887;54.366;10.958;2024-03-25T00:50:00;6.22;;;3.53;;
19492;SDS011;9887;54.366;10.958;2024-03-25T00:52:29;5.40;;;3.33;;
19492;SDS011;9887;54.366;10.958;2024-03-25T00:54:55;8.45;;;3.60;;
19492;SDS011;9887;54.366;10.958;2024-03-25T00:57:22;8.95;;;3.25;;
19492;SDS011;9887;54.366;10.958;2024-03-25T00:59:48;5.82;;;2.88;;
19492;SDS011;9887;54.366;10.958;2024-03-25T01:02:15;6.55;;;2.97;;
19492;SDS011;9887;54.366;10.958;2024-03-25T01:04:42;6.90;;;2.90;;
19492;SDS011;9887;54.366;10.958;2024-03-25T01:07:09;6.60;;;3.35;;
19492;SDS011;9887;54.366;10.958;2024-03-25T01:09:36;5.05;;;2.50;;
19492;SDS011;9887;54.366;10.958;2024-03-25T01:12:04;4.75;;;2.15;;
19492;SDS011;9887;54.366;10.958;2024-03-25T01:14:30;4.85;;;2.33;;
19492;SDS011;9887;54.366;10.958;2024-03-25T01:16:57;5.15;;;2.42;;
19492;SDS011;9887;54.366;10.958;2024-03-25T01:19:23;4.45;;;2.03;;
19492;SDS011;9887;54.366;10.958;2024-03-25T01:21:50;3.05;;;1.50;;
19492;SDS011;9887;54.366;10.958;2024-03-25T01:24:16;4.03;;;2.03;;
19492;SDS011;9887;54.366;10.958;2024-03-25T01:26:44;3.03;;;1.70;;
19492;SDS011;9887;54.366;10.958;2024-03-25T01:29:10;3.20;;;1.83;;
19492;SDS011;9887;54.366;10.958;2024-03-25T01:31:37;4.43;;;1.70;;
19492;SDS011;9887;54.366;10.958;2024-03-25T01:34:03;4.03;;;1.85;;
19492;SDS011;9887;54.366;10.958;2024-03-25T01:36:31;4.65;;;2.15;;
19492;SDS011;9887;54.366;10.958;2024-03-25T01:38:57;2.90;;;1.80;;
19492;SDS011;9887;54.366;10.958;2024-03-25T01:41:24;5.05;;;2.08;;
19492;SDS011;9887;54.366;10.958;2024-03-25T01:43:51;4.32;;;2.40;;
19492;SDS011;9887;54.366;10.958;2024-03-25T01:46:18;4.35;;;2.10;;
19492;SDS011;9887;54.366;10.958;2024-03-25T01:48:45;5.43;;;2.40;;
19492;SDS011;9887;54.366;10.958;2024-03-25T01:51:14;5.32;;;2.53;;
19492;SDS011;9887;54.366;10.958;2024-03-25T01:53:42;5.30;;;2.40;;
19492;SDS011;9887;54.366;10.958;2024-03-25T01:56:09;5.70;;;2.92;;
19492;SDS011;9887;54.366;10.958;2024-03-25T01:58:37;6.55;;;2.83;;
19492;SDS011;9887;54.366;10.958;2024-03-25T02:01:05;6.18;;;2.78;;
19492;SDS011;9887;54.366;10.958;2024-03-25T02:03:31;6.95;;;3.30;;
19492;SDS011;9887;54.366;10.958;2024-03-25T02:06:00;5.45;;;3.13;;
19492;SDS011;9887;54.366;10.958;2024-03-25T02:08:27;8.60;;;3.58;;
19492;SDS011;9887;54.366;10.958;2024-03-25T02:10:56;6.97;;;3.13;;
19492;SDS011;9887;54.366;10.958;2024-03-25T02:13:23;7.10;;;2.92;;
19492;SDS011;9887;54.366;10.958;2024-03-25T02:15:51;6.07;;;3.03;;
19492;SDS011;9887;54.366;10.958;2024-03-25T02:18:19;6.30;;;2.92;;
19492;SDS011;9887;54.366;10.958;2024-03-25T02:20:47;5.93;;;3.33;;
19492;SDS011;9887;54.366;10.958;2024-03-25T02:23:13;5.68;;;3.25;;
19492;SDS011;9887;54.366;10.958;2024-03-25T02:25:42;6.00;;;3.00;;
19492;SDS011;9887;54.366;10.958;2024-03-25T02:28:09;6.35;;;3.00;;
19492;SDS011;9887;54.366;10.958;2024-03-25T02:30:36;5.63;;;3.00;;
19492;SDS011;9887;54.366;10.958;2024-03-25T02:33:02;6.03;;;2.72;;
19492;SDS011;9887;54.366;10.958;2024-03-25T02:35:29;6.70;;;3.42;;
19492;SDS011;9887;54.366;10.958;2024-03-25T02:37:55;4.85;;;3.03;;
19492;SDS011;9887;54.366;10.958;2024-03-25T02:40:23;7.15;;;2.85;;
19492;SDS011;9887;54.366;10.958;2024-03-25T02:42:49;4.90;;;2.60;;
19492;SDS011;9887;54.366;10.958;2024-03-25T02:45:17;5.63;;;2.85;;
19492;SDS011;9887;54.366;10.958;2024-03-25T02:47:43;7.22;;;2.83;;
19492;SDS011;9887;54.366;10.958;2024-03-25T02:50:12;4.93;;;2.67;;
19492;SDS011;9887;54.366;10.958;2024-03-25T02:52:38;5.72;;;2.88;;
19492;SDS011;9887;54.366;10.958;2024-03-25T02:55:05;5.90;;;3.00;;
19492;SDS011;9887;54.366;10.958;2024-03-25T02:57:31;5.97;;;2.72;;
19492;SDS011;9887;54.366;10.958;2024-03-25T02:59:58;7.03;;;2.83;;
19492;SDS011;9887;54.366;10.958;2024-03-25T03:02:25;6.38;;;3.10;;
19492;SDS011;9887;54.366;10.958;2024-03-25T03:04:52;6.05;;;2.95;;
19492;SDS011;9887;54.366;10.958;2024-03-25T03:07:18;7.95;;;3.40;;
19492;SDS011;9887;54.366;10.958;2024-03-25T03:09:45;5.72;;;3.17;;
19492;SDS011;9887;54.366;10.958;2024-03-25T03:12:11;7.78;;;3.25;;
19492;SDS011;9887;54.366;10.958;2024-03-25T03:14:38;6.60;;;3.17;;
19492;SDS011;9887;54.366;10.958;2024-03-25T03:17:04;9.27;;;3.85;;
19492;SDS011;9887;54.366;10.958;2024-03-25T03:19:33;10.63;;;3.90;;
19492;SDS011;9887;54.366;10.958;2024-03-25T03:22:01;12.52;;;3.78;;
19492;SDS011;9887;54.366;10.958;2024-03-25T03:24:28;7.90;;;3.42;;
19492;SDS011;9887;54.366;10.958;2024-03-25T03:26:54;8.40;;;3.45;;
19492;SDS011;9887;54.366;10.958;2024-03-25T03:29:21;9.60;;;3.42;;
19492;SDS011;9887;54.366;10.958;2024-03-25T03:31:47;7.03;;;3.42;;
19492;SDS011;9887;54.366;10.958;2024-03-25T03:34:14;8.30;;;3.33;;
19492;SDS011;9887;54.366;10.958;2024-03-25T03:36:41;8.57;;;3.40;;
19492;SDS011;9887;54.366;10.958;2024-03-25T03:39:08;7.88;;;3.50;;
19492;SDS011;9887;54.366;10.958;2024-03-25T03:41:34;8.52;;;2.97;;
19492;SDS011;9887;54.366;10.958;2024-03-25T03:44:02;9.32;;;3.20;;
19492;SDS011;9887;54.366;10.958;2024-03-25T03:46:28;8.63;;;3.50;;
19492;SDS011;9887;54.366;10.958;2024-03-25T03:48:55;8.57;;;3.38;;
19492;SDS011;9887;54.366;10.958;2024-03-25T03:51:21;8.48;;;3.35;;
19492;SDS011;9887;54.366;10.958;2024-03-25T03:53:49;7.50;;;3.40;;
19492;SDS011;9887;54.366;10.958;2024-03-25T03:56:15;13.23;;;4.15;;
19492;SDS011;9887;54.366;10.958;2024-03-25T03:58:42;8.18;;;3.20;;
19492;SDS011;9887;54.366;10.958;2024-03-25T04:01:13;9.88;;;4.05;;
19492;SDS011;9887;54.366;10.958;2024-03-25T04:03:41;8.82;;;4.00;;
19492;SDS011;9887;54.366;10.958;2024-03-25T04:06:07;8.80;;;3.70;;
19492;SDS011;9887;54.366;10.958;2024-03-25T04:08:35;8.32;;;3.80;;
19492;SDS011;9887;54.366;10.958;2024-03-25T04:11:02;11.35;;;4.63;;
19492;SDS011;9887;54.366;10.958;2024-03-25T04:13:31;8.45;;;4.13;;
19492;SDS011;9887;54.366;10.958;2024-03-25T04:16:00;12.88;;;4.75;;
19492;SDS011;9887;54.366;10.958;2024-03-25T04:18:29;9.02;;;4.13;;
19492;SDS011;9887;54.366;10.958;2024-03-25T04:20:56;8.43;;;4.40;;
19492;SDS011;9887;54.366;10.958;2024-03-25T04:23:23;12.93;;;4.68;;
19492;SDS011;9887;54.366;10.958;2024-03-25T04:25:52;9.85;;;4.53;;
19492;SDS011;9887;54.366;10.958;2024-03-25T04:28:20;13.48;;;5.13;;
19492;SDS011;9887;54.366;10.958;2024-03-25T04:30:51;9.80;;;4.80;;
19492;SDS011;9887;54.366;10.958;2024-03-25T04:33:18;9.15;;;4.80;;
19492;SDS011;9887;54.366;10.958;2024-03-25T04:35:45;12.30;;;4.93;;
19492;SDS011;9887;54.366;10.958;2024-03-25T04:38:12;12.00;;;4.60;;
19492;SDS011;9887;54.366;10.958;2024-03-25T04:40:39;11.80;;;4.30;;
19492;SDS011;9887;54.366;10.958;2024-03-25T04:43:06;11.95;;;4.70;;
19492;SDS011;9887;54.366;10.958;2024-03-25T04:45:33;14.15;;;4.60;;
19492;SDS011;9887;54.366;10.958;2024-03-25T04:47:59;9.02;;;4.13;;
19492;SDS011;9887;54.366;10.958;2024-03-25T04:50:25;9.90;;;4.25;;
19492;SDS011;9887;54.366;10.958;2024-03-25T04:52:51;11.18;;;4.60;;
19492;SDS011;9887;54.366;10.958;2024-03-25T04:55:18;9.35;;;4.50;;
19492;SDS011;9887;54.366;10.958;2024-03-25T04:57:46;10.35;;;4.43;;
19492;SDS011;9887;54.366;10.958;2024-03-25T05:00:12;10.25;;;4.57;;
19492;SDS011;9887;54.366;10.958;2024-03-25T05:02:40;10.05;;;4.18;;
19492;SDS011;9887;54.366;10.958;2024-03-25T05:05:06;8.45;;;3.53;;
19492;SDS011;9887;54.366;10.958;2024-03-25T05:07:33;10.50;;;4.18;;
19492;SDS011;9887;54.366;10.958;2024-03-25T05:09:59;8.52;;;3.80;;
19492;SDS011;9887;54.366;10.958;2024-03-25T05:12:25;11.38;;;4.18;;
19492;SDS011;9887;54.366;10.958;2024-03-25T05:14:52;9.35;;;4.13;;
19492;SDS011;9887;54.366;10.958;2024-03-25T05:17:18;10.18;;;3.75;;
19492;SDS011;9887;54.366;10.958;2024-03-25T05:19:45;9.40;;;3.60;;
19492;SDS011;9887;54.366;10.958;2024-03-25T05:22:11;11.88;;;3.40;;
19492;SDS011;9887;54.366;10.958;2024-03-25T05:24:37;7.72;;;3.42;;
19492;SDS011;9887;54.366;10.958;2024-03-25T05:27:03;10.05;;;4.15;;
19492;SDS011;9887;54.366;10.958;2024-03-25T05:29:30;10.57;;;3.40;;
19492;SDS011;9887;54.366;10.958;2024-03-25T05:31:56;8.88;;;3.50;;
19492;SDS011;9887;54.366;10.958;2024-03-25T05:34:24;7.88;;;3.65;;
19492;SDS011;9887;54.366;10.958;2024-03-25T05:36:51;8.90;;;3.33;;
19492;SDS011;9887;54.366;10.958;2024-03-25T05:39:17;6.05;;;3.00;;
19492;SDS011;9887;54.366;10.958;2024-03-25T05:41:44;7.80;;;2.90;;
19492;SDS011;9887;54.366;10.958;2024-03-25T05:44:10;8.55;;;3.20;;
19492;SDS011;9887;54.366;10.958;2024-03-25T05:46:36;10.05;;;3.20;;
19492;SDS011;9887;54.366;10.958;2024-03-25T05:49:02;5.47;;;2.80;;
19492;SDS011;9887;54.366;10.958;2024-03-25T05:51:29;7.60;;;2.70;;
19492;SDS011;9887;54.366;10.958;2024-03-25T05:53:56;8.05;;;2.63;;
19492;SDS011;9887;54.366;10.958;2024-03-25T05:56:23;7.47;;;2.70;;
19492;SDS011;9887;54.366;10.958;2024-03-25T05:58:49;8.73;;;2.50;;
19492;SDS011;9887;54.366;10.958;2024-03-25T06:01:15;6.38;;;2.55;;
19492;SDS011;9887;54.366;10.958;2024-03-25T06:03:41;6.78;;;2.95;;
19492;SDS011;9887;54.366;10.958;2024-03-25T06:06:07;7.20;;;2.25;;
19492;SDS011;9887;54.366;10.958;2024-03-25T06:08:33;6.07;;;1.92;;
19492;SDS011;9887;54.366;10.958;2024-03-25T06:11:03;6.10;;;2.60;;
19492;SDS011;9887;54.366;10.958;2024-03-25T06:13:30;5.95;;;2.33;;
19492;SDS011;9887;54.366;10.958;2024-03-25T06:15:56;5.30;;;2.20;;
19492;SDS011;9887;54.366;10.958;2024-03-25T06:18:22;4.50;;;2.10;;
19492;SDS011;9887;54.366;10.958;2024-03-25T06:20:48;5.60;;;2.35;;
19492;SDS011;9887;54.366;10.958;2024-03-25T06:23:21;6.38;;;2.05;;
19492;SDS011;9887;54.366;10.958;2024-03-25T06:25:48;7.75;;;2.30;;
19492;SDS011;9887;54.366;10.958;2024-03-25T06:28:16;4.95;;;2.08;;
19492;SDS011;9887;54.366;10.958;2024-03-25T06:30:44;8.15;;;2.33;;
19492;SDS011;9887;54.366;10.958;2024-03-25T06:33:29;7.07;;;2.20;;
19492;SDS011;9887;54.366;10.958;2024-03-25T06:36:14;4.20;;;1.90;;
19492;SDS011;9887;54.366;10.958;2024-03-25T06:38:40;5.38;;;2.30;;
19492;SDS011;9887;54.366;10.958;2024-03-25T06:41:06;6.32;;;1.90;;
19492;SDS011;9887;54.366;10.958;2024-03-25T06:43:34;6.63;;;2.10;;
19492;SDS011;9887;54.366;10.958;2024-03-25T06:46:00;4.80;;;1.98;;
19492;SDS011;9887;54.366;10.958;2024-03-25T06:48:26;10.98;;;2.28;;
19492;SDS011;9887;54.366;10.958;2024-03-25T06:50:52;6.55;;;2.47;;
19492;SDS011;9887;54.366;10.958;2024-03-25T06:53:19;9.05;;;2.10;;
19492;SDS011;9887;54.366;10.958;2024-03-25T06:55:52;5.00;;;1.80;;
19492;SDS011;9887;54.366;10.958;2024-03-25T06:58:19;5.57;;;2.05;;
19492;SDS011;9887;54.366;10.958;2024-03-25T07:00:47;5.38;;;1.83;;
19492;SDS011;9887;54.366;10.958;2024-03-25T07:03:13;7.60;;;2.20;;
19492;SDS011;9887;54.366;10.958;2024-03-25T07:05:40;5.28;;;1.73;;
19492;SDS011;9887;54.366;10.958;2024-03-25T07:08:06;5.78;;;2.40;;
19492;SDS011;9887;54.366;10.958;2024-03-25T07:10:32;3.97;;;1.67;;
19492;SDS011;9887;54.366;10.958;2024-03-25T07:12:58;6.85;;;2.00;;
19492;SDS011;9887;54.366;10.958;2024-03-25T07:15:25;3.90;;;1.75;;
19492;SDS011;9887;54.366;10.958;2024-03-25T07:17:52;5.28;;;1.73;;
19492;SDS011;9887;54.366;10.958;2024-03-25T07:20:18;4.63;;;1.73;;
19492;SDS011;9887;54.366;10.958;2024-03-25T07:22:44;5.63;;;2.20;;
19492;SDS011;9887;54.366;10.958;2024-03-25T07:25:11;7.60;;;2.13;;
19492;SDS011;9887;54.366;10.958;2024-03-25T07:27:37;5.22;;;1.67;;
19492;SDS011;9887;54.366;10.958;2024-03-25T07:30:03;7.32;;;1.85;;
19492;SDS011;9887;54.366;10.958;2024-03-25T07:32:30;5.13;;;1.65;;
19492;SDS011;9887;54.366;10.958;2024-03-25T07:34:58;4.80;;;1.60;;
19492;SDS011;9887;54.366;10.958;2024-03-25T07:37:24;3.58;;;1.58;;
19492;SDS011;9887;54.366;10.958;2024-03-25T07:39:50;5.13;;;1.95;;
19492;SDS011;9887;54.366;10.958;2024-03-25T07:42:17;6.80;;;1.92;;
19492;SDS011;9887;54.366;10.958;2024-03-25T07:44:43;4.90;;;1.90;;
19492;SDS011;9887;54.366;10.958;2024-03-25T07:47:09;5.82;;;2.05;;
19492;SDS011;9887;54.366;10.958;2024-03-25T07:49:35;7.70;;;1.83;;
19492;SDS011;9887;54.366;10.958;2024-03-25T07:52:02;4.45;;;2.28;;
19492;SDS011;9887;54.366;10.958;2024-03-25T07:54:29;6.28;;;1.80;;
19492;SDS011;9887;54.366;10.958;2024-03-25T07:56:55;5.05;;;1.80;;
19492;SDS011;9887;54.366;10.958;2024-03-25T07:59:21;5.63;;;1.55;;
19492;SDS011;9887;54.366;10.958;2024-03-25T08:01:47;3.90;;;2.15;;
19492;SDS011;9887;54.366;10.958;2024-03-25T08:04:13;3.08;;;1.58;;
19492;SDS011;9887;54.366;10.958;2024-03-25T08:06:39;7.25;;;2.25;;
19492;SDS011;9887;54.366;10.958;2024-03-25T08:09:07;3.60;;;2.00;;
19492;SDS011;9887;54.366;10.958;2024-03-25T08:11:34;4.45;;;2.20;;
19492;SDS011;9887;54.366;10.958;2024-03-25T08:14:00;4.43;;;1.85;;
19492;SDS011;9887;54.366;10.958;2024-03-25T08:16:26;5.88;;;1.73;;
19492;SDS011;9887;54.366;10.958;2024-03-25T08:18:52;3.75;;;1.80;;
19492;SDS011;9887;54.366;10.958;2024-03-25T08:21:18;5.07;;;1.70;;
19492;SDS011;9887;54.366;10.958;2024-03-25T08:23:44;3.97;;;1.83;;
19492;SDS011;9887;54.366;10.958;2024-03-25T08:26:12;3.35;;;1.70;;
19492;SDS011;9887;54.366;10.958;2024-03-25T08:28:38;4.63;;;1.92;;
19492;SDS011;9887;54.366;10.958;2024-03-25T08:31:04;4.95;;;1.70;;
19492;SDS011;9887;54.366;10.958;2024-03-25T08:33:31;4.72;;;1.80;;
19492;SDS011;9887;54.366;10.958;2024-03-25T08:35:57;3.42;;;1.65;;
19492;SDS011;9887;54.366;10.958;2024-03-25T08:38:23;7.40;;;1.70;;
19492;SDS011;9887;54.366;10.958;2024-03-25T08:40:50;7.03;;;2.00;;
19492;SDS011;9887;54.366;10.958;2024-03-25T08:43:17;3.53;;;1.67;;
19492;SDS011;9887;54.366;10.958;2024-03-25T08:45:44;4.15;;;1.83;;
19492;SDS011;9887;54.366;10.958;2024-03-25T08:48:10;4.65;;;2.17;;
19492;SDS011;9887;54.366;10.958;2024-03-25T08:50:36;4.72;;;1.85;;
19492;SDS011;9887;54.366;10.958;2024-03-25T08:53:02;5.22;;;1.95;;
19492;SDS011;9887;54.366;10.958;2024-03-25T08:55:29;7.22;;;1.83;;
19492;SDS011;9887;54.366;10.958;2024-03-25T08:57:55;5.68;;;2.00;;
19492;SDS011;9887;54.366;10.958;2024-03-25T09:00:23;3.97;;;1.60;;
19492;SDS011;9887;54.366;10.958;2024-03-25T09:02:49;4.43;;;1.80;;
19492;SDS011;9887;54.366;10.958;2024-03-25T09:05:15;6.90;;;1.90;;
19492;SDS011;9887;54.366;10.958;2024-03-25T09:07:42;5.63;;;1.70;;
19492;SDS011;9887;54.366;10.958;2024-03-25T09:10:08;3.10;;;1.70;;
19492;SDS011;9887;54.366;10.958;2024-03-25T09:12:53;4.03;;;1.70;;
19492;SDS011;9887;54.366;10.958;2024-03-25T09:15:19;4.95;;;1.90;;
19492;SDS011;9887;54.366;10.958;2024-03-25T09:17:47;5.30;;;1.60;;
19492;SDS011;9887;54.366;10.958;2024-03-25T09:20:13;4.60;;;1.70;;
19492;SDS011;9887;54.366;10.958;2024-03-25T09:22:42;3.72;;;1.60;;
19492;SDS011;9887;54.366;10.958;2024-03-25T09:25:08;4.13;;;1.60;;
19492;SDS011;9887;54.366;10.958;2024-03-25T09:27:34;6.55;;;1.60;;
19492;SDS011;9887;54.366;10.958;2024-03-25T09:30:00;2.92;;;1.65;;
19492;SDS011;9887;54.366;10.958;2024-03-25T09:32:27;5.57;;;1.85;;
19492;SDS011;9887;54.366;10.958;2024-03-25T09:34:55;4.18;;;1.58;;
19492;SDS011;9887;54.366;10.958;2024-03-25T09:37:21;5.63;;;1.90;;
19492;SDS011;9887;54.366;10.958;2024-03-25T09:39:47;5.28;;;1.90;;
19492;SDS011;9887;54.366;10.958;2024-03-25T09:42:15;5.85;;;1.60;;
19492;SDS011;9887;54.366;10.958;2024-03-25T09:44:44;3.15;;;1.40;;
19492;SDS011;9887;54.366;10.958;2024-03-25T09:47:10;3.40;;;1.38;;
19492;SDS011;9887;54.366;10.958;2024-03-25T09:49:36;6.50;;;1.88;;
19492;SDS011;9887;54.366;10.958;2024-03-25T09:52:05;3.33;;;1.42;;
19492;SDS011;9887;54.366;10.958;2024-03-25T09:54:32;2.40;;;1.30;;
19492;SDS011;9887;54.366;10.958;2024-03-25T09:56:58;6.57;;;1.92;;
19492;SDS011;9887;54.366;10.958;2024-03-25T09:59:25;7.03;;;1.60;;
19492;SDS011;9887;54.366;10.958;2024-03-25T10:01:52;3.55;;;1.50;;
19492;SDS011;9887;54.366;10.958;2024-03-25T10:04:19;3.70;;;1.50;;
19492;SDS011;9887;54.366;10.958;2024-03-25T10:06:45;7.00;;;1.45;;
19492;SDS011;9887;54.366;10.958;2024-03-25T10:09:13;3.92;;;1.40;;
19492;SDS011;9887;54.366;10.958;2024-03-25T10:11:39;4.28;;;1.45;;
19492;SDS011;9887;54.366;10.958;2024-03-25T10:14:05;4.47;;;1.70;;
19492;SDS011;9887;54.366;10.958;2024-03-25T10:16:32;3.60;;;1.17;;
19492;SDS011;9887;54.366;10.958;2024-03-25T10:18:58;3.40;;;1.30;;
19492;SDS011;9887;54.366;10.958;2024-03-25T10:21:24;3.33;;;1.15;;
19492;SDS011;9887;54.366;10.958;2024-03-25T10:23:50;4.90;;;1.52;;
19492;SDS011;9887;54.366;10.958;2024-03-25T10:26:28;6.65;;;1.80;;
19492;SDS011;9887;54.366;10.958;2024-03-25T10:29:02;3.20;;;1.20;;
19492;SDS011;9887;54.366;10.958;2024-03-25T10:31:29;4.93;;;1.30;;
19492;SDS011;9887;54.366;10.958;2024-03-25T10:33:56;8.65;;;1.70;;
19492;SDS011;9887;54.366;10.958;2024-03-25T10:36:23;2.95;;;1.45;;
19492;SDS011;9887;54.366;10.958;2024-03-25T10:38:53;4.40;;;1.15;;
19492;SDS011;9887;54.366;10.958;2024-03-25T10:41:20;8.68;;;1.70;;
19492;SDS011;9887;54.366;10.958;2024-03-25T10:43:48;4.32;;;1.30;;
19492;SDS011;9887;54.366;10.958;2024-03-25T10:46:16;4.78;;;1.50;;
19492;SDS011;9887;54.366;10.958;2024-03-25T10:48:50;5.97;;;1.40;;
19492;SDS011;9887;54.366;10.958;2024-03-25T10:51:20;6.35;;;1.25;;
19492;SDS011;9887;54.366;10.958;2024-03-25T10:53:48;4.18;;;1.60;;
19492;SDS011;9887;54.366;10.958;2024-03-25T10:56:19;4.50;;;1.17;;
19492;SDS011;9887;54.366;10.958;2024-03-25T10:58:46;3.08;;;1.10;;
19492;SDS011;9887;54.366;10.958;2024-03-25T11:01:16;7.50;;;1.33;;
19492;SDS011;9887;54.366;10.958;2024-03-25T11:03:43;4.50;;;1.20;;
19492;SDS011;9887;54.366;10.958;2024-03-25T11:06:11;3.17;;;1.10;;
19492;SDS011;9887;54.366;10.958;2024-03-25T11:08:37;5.10;;;1.40;;
19492;SDS011;9887;54.366;10.958;2024-03-25T11:11:04;5.25;;;1.30;;
19492;SDS011;9887;54.366;10.958;2024-03-25T11:13:31;5.75;;;1.73;;
19492;SDS011;9887;54.366;10.958;2024-03-25T11:15:58;2.55;;;0.95;;
19492;SDS011;9887;54.366;10.958;2024-03-25T11:18:25;4.22;;;1.38;;
19492;SDS011;9887;54.366;10.958;2024-03-25T11:21:00;5.07;;;1.40;;
19492;SDS011;9887;54.366;10.958;2024-03-25T11:23:34;4.07;;;1.08;;
19492;SDS011;9887;54.366;10.958;2024-03-25T11:26:01;3.88;;;1.15;;
19492;SDS011;9887;54.366;10.958;2024-03-25T11:28:28;3.50;;;1.02;;
19492;SDS011;9887;54.366;10.958;2024-03-25T11:30:55;5.03;;;1.13;;
19492;SDS011;9887;54.366;10.958;2024-03-25T11:33:23;4.20;;;1.50;;
19492;SDS011;9887;54.366;10.958;2024-03-25T11:35:49;3.95;;;1.38;;
19492;SDS011;9887;54.366;10.958;2024-03-25T11:38:15;4.85;;;1.45;;
19492;SDS011;9887;54.366;10.958;2024-03-25T11:40:42;5.70;;;1.17;;
19492;SDS011;9887;54.366;10.958;2024-03-25T11:43:17;5.68;;;1.08;;
19492;SDS011;9887;54.366;10.958;2024-03-25T11:45:46;5.40;;;1.35;;
19492;SDS011;9887;54.366;10.958;2024-03-25T11:48:13;5.55;;;1.42;;
19492;SDS011;9887;54.366;10.958;2024-03-25T11:50:41;5.70;;;1.25;;
19492;SDS011;9887;54.366;10.958;2024-03-25T11:53:10;5.78;;;1.55;;
19492;SDS011;9887;54.366;10.958;2024-03-25T11:55:36;5.32;;;1.30;;
19492;SDS011;9887;54.366;10.958;2024-03-25T11:58:03;6.43;;;1.35;;
19492;SDS011;9887;54.366;10.958;2024-03-25T12:00:29;5.57;;;1.38;;
19492;SDS011;9887;54.366;10.958;2024-03-25T12:02:57;4.90;;;1.20;;
19492;SDS011;9887;54.366;10.958;2024-03-25T12:05:24;4.70;;;1.10;;
19492;SDS011;9887;54.366;10.958;2024-03-25T12:07:51;3.13;;;1.05;;
19492;SDS011;9887;54.366;10.958;2024-03-25T12:10:17;4.15;;;1.02;;
19492;SDS011;9887;54.366;10.958;2024-03-25T12:13:02;4.22;;;1.10;;
19492;SDS011;9887;54.366;10.958;2024-03-25T12:15:28;5.53;;;1.23;;
19492;SDS011;9887;54.366;10.958;2024-03-25T12:17:55;3.65;;;1.10;;
19492;SDS011;9887;54.366;10.958;2024-03-25T12:20:21;2.85;;;1.08;;
19492;SDS011;9887;54.366;10.958;2024-03-25T12:22:48;3.63;;;1.15;;
19492;SDS011;9887;54.366;10.958;2024-03-25T12:25:16;2.92;;;0.90;;
19492;SDS011;9887;54.366;10.958;2024-03-25T12:27:45;6.88;;;1.38;;
19492;SDS011;9887;54.366;10.958;2024-03-25T12:30:12;3.63;;;1.13;;
19492;SDS011;9887;54.366;10.958;2024-03-25T12:32:39;4.55;;;1.27;;
19492;SDS011;9887;54.366;10.958;2024-03-25T12:35:07;5.57;;;1.50;;
19492;SDS011;9887;54.366;10.958;2024-03-25T12:37:33;4.90;;;1.23;;
19492;SDS011;9887;54.366;10.958;2024-03-25T12:39:59;4.60;;;1.38;;
19492;SDS011;9887;54.366;10.958;2024-03-25T12:42:27;4.75;;;1.27;;
19492;SDS011;9887;54.366;10.958;2024-03-25T12:44:53;5.18;;;1.27;;
19492;SDS011;9887;54.366;10.958;2024-03-25T12:47:19;4.72;;;1.20;;
19492;SDS011;9887;54.366;10.958;2024-03-25T12:49:46;7.03;;;1.60;;
19492;SDS011;9887;54.366;10.958;2024-03-25T12:52:12;3.78;;;1.10;;
19492;SDS011;9887;54.366;10.958;2024-03-25T12:54:38;7.00;;;1.83;;
19492;SDS011;9887;54.366;10.958;2024-03-25T12:57:04;5.95;;;1.63;;
19492;SDS011;9887;54.366;10.958;2024-03-25T12:59:32;5.70;;;1.60;;
19492;SDS011;9887;54.366;10.958;2024-03-25T13:01:58;5.03;;;1.02;;
19492;SDS011;9887;54.366;10.958;2024-03-25T13:04:24;6.07;;;1.50;;
19492;SDS011;9887;54.366;10.958;2024-03-25T13:06:51;6.30;;;1.67;;
19492;SDS011;9887;54.366;10.958;2024-03-25T13:09:17;4.35;;;1.40;;
19492;SDS011;9887;54.366;10.958;2024-03-25T13:11:43;6.43;;;1.70;;
19492;SDS011;9887;54.366;10.958;2024-03-25T13:14:10;5.95;;;1.50;;
19492;SDS011;9887;54.366;10.958;2024-03-25T13:16:38;3.17;;;1.23;;
19492;SDS011;9887;54.366;10.958;2024-03-25T13:19:05;5.72;;;1.80;;
19492;SDS011;9887;54.366;10.958;2024-03-25T13:21:31;5.65;;;1.42;;
19492;SDS011;9887;54.366;10.958;2024-03-25T13:23:58;7.93;;;1.60;;
19492;SDS011;9887;54.366;10.958;2024-03-25T13:26:24;3.55;;;1.50;;
19492;SDS011;9887;54.366;10.958;2024-03-25T13:28:51;6.32;;;1.58;;
19492;SDS011;9887;54.366;10.958;2024-03-25T13:31:17;5.45;;;1.70;;
19492;SDS011;9887;54.366;10.958;2024-03-25T13:33:45;7.60;;;1.80;;
19492;SDS011;9887;54.366;10.958;2024-03-25T13:36:11;7.28;;;1.55;;
19492;SDS011;9887;54.366;10.958;2024-03-25T13:38:37;5.05;;;1.42;;
19492;SDS011;9887;54.366;10.958;2024-03-25T13:41:03;5.88;;;1.65;;
19492;SDS011;9887;54.366;10.958;2024-03-25T13:43:29;6.90;;;1.40;;
19492;SDS011;9887;54.366;10.958;2024-03-25T13:45:55;7.22;;;1.80;;
19492;SDS011;9887;54.366;10.958;2024-03-25T13:48:22;6.90;;;1.65;;
19492;SDS011;9887;54.366;10.958;2024-03-25T13:50:49;6.80;;;1.63;;
19492;SDS011;9887;54.366;10.958;2024-03-25T13:53:18;7.53;;;1.95;;
19492;SDS011;9887;54.366;10.958;2024-03-25T13:55:44;8.45;;;1.30;;
19492;SDS011;9887;54.366;10.958;2024-03-25T13:58:10;6.55;;;1.40;;
19492;SDS011;9887;54.366;10.958;2024-03-25T14:00:36;4.30;;;1.48;;
19492;SDS011;9887;54.366;10.958;2024-03-25T14:03:03;6.32;;;1.42;;
19492;SDS011;9887;54.366;10.958;2024-03-25T14:05:30;6.53;;;1.83;;
19492;SDS011;9887;54.366;10.958;2024-03-25T14:07:57;6.88;;;1.40;;
19492;SDS011;9887;54.366;10.958;2024-03-25T14:10:23;7.05;;;1.40;;
19492;SDS011;9887;54.366;10.958;2024-03-25T14:12:49;3.92;;;1.30;;
19492;SDS011;9887;54.366;10.958;2024-03-25T14:15:15;4.18;;;1.27;;
19492;SDS011;9887;54.366;10.958;2024-03-25T14:17:41;3.97;;;1.10;;
19492;SDS011;9887;54.366;10.958;2024-03-25T14:20:08;4.63;;;1.33;;
19492;SDS011;9887;54.366;10.958;2024-03-25T14:22:35;5.97;;;1.63;;
19492;SDS011;9887;54.366;10.958;2024-03-25T14:25:03;6.25;;;1.27;;
19492;SDS011;9887;54.366;10.958;2024-03-25T14:27:29;5.82;;;1.40;;
19492;SDS011;9887;54.366;10.958;2024-03-25T14:29:55;6.97;;;1.25;;
19492;SDS011;9887;54.366;10.958;2024-03-25T14:32:22;4.43;;;1.10;;
19492;SDS011;9887;54.366;10.958;2024-03-25T14:34:49;5.53;;;1.35;;
19492;SDS011;9887;54.366;10.958;2024-03-25T14:37:15;3.53;;;1.10;;
19492;SDS011;9887;54.366;10.958;2024-03-25T14:39:41;3.72;;;1.00;;
19492;SDS011;9887;54.366;10.958;2024-03-25T14:42:09;6.53;;;1.38;;
19492;SDS011;9887;54.366;10.958;2024-03-25T14:44:35;5.47;;;1.63;;
19492;SDS011;9887;54.366;10.958;2024-03-25T14:47:02;5.28;;;1.15;;